Terminal Aerodrome Forecast
Issued by NWS

Home | Current Version | Previous Version | Text Only | Print | Product List | Glossary On
Versions: 1 2 3 4 5 6 7 8 9 10 11 12 13 14 15 16
909
FTUS43 KAPX 251737 AAB
TAFAPN
TAF AMD
KAPN 251737Z 2518/2618 15009KT P6SM SCT100
     FM252200 15010G18KT P6SM SCT035 BKN070
     FM260300 16011G19KT P6SM VCSH BKN050 WS020/17035KT
     FM260700 17011G19KT 6SM SHRA SCT025 OVC040
     FM261200 19007KT P6SM BKN009 OVC025
     FM261600 22009KT P6SM OVC025=

USA.gov is the U.S. government's official web portal to all federal, state and local government web resources and services.